DAL9252 KHPN-KBOS
Flight info
| Callsign | DAL9252 |
|---|---|
| Flight time | N/A |
| Altitude | 21000 |
| Route | MERIT ROBUC3 |
| Aircraft | A319/M-SDE3FGHIRWY/LB1 |
Departure
| Time | 2026-05-03 21:36 |
|---|---|
| Airport | Westchester County Airport (KHPN) |
Arrival
| Time | N/A |
|---|---|
| Airport | Boston Logan International Airport (KBOS) |
| Time | Latitude | Longitude | Altitude | Speed | Heading |
|---|---|---|---|---|---|
| 2026-05-03 21:16 | 41.06806 | -73.70464 | 416 ft | 0 kts | 60° |
| 2026-05-03 21:27 | 41.06806 | -73.70465 | 420 ft | 1 kts | 60° |
| 2026-05-03 21:28 | 41.06798 | -73.70485 | 411 ft | 3 kts | 69° |
| 2026-05-03 21:28 | 41.06793 | -73.70509 | 409 ft | 3 kts | 94° |
| 2026-05-03 21:28 | 41.06798 | -73.70532 | 411 ft | 3 kts | 133° |
| 2026-05-03 21:28 | 41.06806 | -73.70542 | 414 ft | 1 kts | 150° |
| 2026-05-03 21:29 | 41.06809 | -73.70544 | 414 ft | 0 kts | 150° |
| 2026-05-03 21:31 | 41.06805 | -73.70541 | 413 ft | 4 kts | 150° |
| 2026-05-03 21:31 | 41.06757 | -73.70504 | 420 ft | 9 kts | 150° |
| 2026-05-03 21:31 | 41.06700 | -73.70460 | 420 ft | 10 kts | 149° |
| 2026-05-03 21:31 | 41.06649 | -73.70420 | 420 ft | 9 kts | 149° |
| 2026-05-03 21:32 | 41.06593 | -73.70377 | 420 ft | 10 kts | 149° |
| 2026-05-03 21:32 | 41.06531 | -73.70329 | 420 ft | 11 kts | 149° |
| 2026-05-03 21:32 | 41.06461 | -73.70274 | 410 ft | 12 kts | 149° |
| 2026-05-03 21:32 | 41.06386 | -73.70216 | 416 ft | 13 kts | 149° |
| 2026-05-03 21:33 | 41.06310 | -73.70157 | 420 ft | 13 kts | 149° |
| 2026-05-03 21:33 | 41.06228 | -73.70093 | 417 ft | 14 kts | 149° |
| 2026-05-03 21:33 | 41.06151 | -73.70036 | 420 ft | 12 kts | 155° |
| 2026-05-03 21:33 | 41.06074 | -73.70030 | 416 ft | 8 kts | 202° |
| 2026-05-03 21:34 | 41.06060 | -73.70045 | 420 ft | 0 kts | 221° |
| 2026-05-03 21:34 | 41.06058 | -73.70047 | 420 ft | 0 kts | 221° |
| 2026-05-03 21:34 | 41.06057 | -73.70048 | 420 ft | 0 kts | 221° |
| 2026-05-03 21:34 | 41.06054 | -73.70052 | 418 ft | 2 kts | 225° |
| 2026-05-03 21:35 | 41.06035 | -73.70085 | 415 ft | 7 kts | 236° |
| 2026-05-03 21:35 | 41.06030 | -73.70154 | 413 ft | 9 kts | 296° |
| 2026-05-03 21:35 | 41.06137 | -73.70245 | 411 ft | 49 kts | 330° |
| 2026-05-03 21:35 | 41.06704 | -73.70687 | 439 ft | 132 kts | 327° |
| 2026-05-03 21:36 | 41.07616 | -73.71341 | 936 ft | 156 kts | 329° |
| 2026-05-03 21:36 | 41.08372 | -73.72217 | 2017 ft | 142 kts | 298° |
| 2026-05-03 21:36 | 41.08475 | -73.73577 | 2774 ft | 165 kts | 265° |
| 2026-05-03 21:36 | 41.08349 | -73.75188 | 3306 ft | 185 kts | 283° |
| 2026-05-03 21:37 | 41.08724 | -73.76929 | 3842 ft | 209 kts | 288° |
| 2026-05-03 21:37 | 41.09415 | -73.78716 | 4426 ft | 231 kts | 313° |
| 2026-05-03 21:37 | 41.10834 | -73.79809 | 5383 ft | 245 kts | 341° |
| 2026-05-03 21:37 | 41.12519 | -73.80241 | 6517 ft | 248 kts | 347° |
| 2026-05-03 21:38 | 41.14230 | -73.80585 | 7576 ft | 251 kts | 347° |
| 2026-05-03 21:38 | 41.15971 | -73.80926 | 8631 ft | 254 kts | 347° |
| 2026-05-03 21:38 | 41.17731 | -73.81276 | 9681 ft | 258 kts | 347° |
| 2026-05-03 21:38 | 41.19539 | -73.81637 | 10409 ft | 272 kts | 347° |
| 2026-05-03 21:39 | 41.21523 | -73.81676 | 10841 ft | 301 kts | 6° |
| 2026-05-03 21:39 | 41.23512 | -73.80573 | 11599 ft | 322 kts | 28° |
| 2026-05-03 21:39 | 41.25094 | -73.78373 | 12477 ft | 342 kts | 54° |
| 2026-05-03 21:39 | 41.25946 | -73.75361 | 13357 ft | 355 kts | 70° |
| 2026-05-03 21:40 | 41.26593 | -73.72171 | 14164 ft | 360 kts | 70° |
| 2026-05-03 21:40 | 41.27233 | -73.68939 | 14910 ft | 364 kts | 70° |
| 2026-05-03 21:40 | 41.27881 | -73.65659 | 15641 ft | 369 kts | 70° |
| 2026-05-03 21:40 | 41.28541 | -73.62334 | 16372 ft | 374 kts | 70° |
| 2026-05-03 21:41 | 41.29214 | -73.58970 | 16859 ft | 379 kts | 70° |
| 2026-05-03 21:41 | 41.29883 | -73.55628 | 16982 ft | 379 kts | 70° |
| 2026-05-03 21:41 | 41.30561 | -73.52230 | 17011 ft | 379 kts | 70° |
| 2026-05-03 21:41 | 41.31236 | -73.48844 | 17011 ft | 380 kts | 70° |
| 2026-05-03 21:42 | 41.31915 | -73.45449 | 17011 ft | 379 kts | 70° |
| 2026-05-03 21:42 | 41.32592 | -73.42055 | 17011 ft | 379 kts | 70° |
| 2026-05-03 21:42 | 41.33267 | -73.38666 | 17010 ft | 379 kts | 70° |
| 2026-05-03 21:42 | 41.33942 | -73.35274 | 17011 ft | 380 kts | 70° |
| 2026-05-03 21:43 | 41.34619 | -73.31875 | 17015 ft | 380 kts | 70° |
| 2026-05-03 21:43 | 41.35293 | -73.28483 | 17016 ft | 379 kts | 70° |
| 2026-05-03 21:43 | 41.35962 | -73.25093 | 17014 ft | 379 kts | 70° |
| 2026-05-03 21:43 | 41.36629 | -73.21702 | 17014 ft | 378 kts | 70° |
| 2026-05-03 21:44 | 41.37293 | -73.18312 | 17026 ft | 378 kts | 71° |
| 2026-05-03 21:44 | 41.37958 | -73.14925 | 17007 ft | 377 kts | 71° |
| 2026-05-03 21:44 | 41.38443 | -73.11478 | 17026 ft | 381 kts | 77° |
| 2026-05-03 21:44 | 41.38824 | -73.07982 | 17010 ft | 381 kts | 77° |
| 2026-05-03 21:45 | 41.39203 | -73.04490 | 17013 ft | 381 kts | 77° |
| 2026-05-03 21:45 | 41.39581 | -73.01001 | 17011 ft | 381 kts | 77° |
| 2026-05-03 21:45 | 41.39953 | -72.97558 | 17010 ft | 381 kts | 77° |
| 2026-05-03 21:45 | 41.40328 | -72.94066 | 17021 ft | 381 kts | 78° |
| 2026-05-03 21:46 | 41.40703 | -72.90577 | 17002 ft | 380 kts | 77° |
| 2026-05-03 21:46 | 41.41077 | -72.87093 | 17002 ft | 380 kts | 78° |
| 2026-05-03 21:46 | 41.41449 | -72.83605 | 17003 ft | 380 kts | 78° |
| 2026-05-03 21:46 | 41.41821 | -72.80114 | 17000 ft | 380 kts | 78° |
| 2026-05-03 21:47 | 41.42188 | -72.76620 | 16998 ft | 380 kts | 78° |
| 2026-05-03 21:47 | 41.42551 | -72.73137 | 16999 ft | 381 kts | 78° |
| 2026-05-03 21:47 | 41.42916 | -72.69639 | 16998 ft | 380 kts | 78° |
| 2026-05-03 21:47 | 41.43284 | -72.66155 | 16998 ft | 380 kts | 78° |
| 2026-05-03 21:48 | 41.43653 | -72.62663 | 16998 ft | 380 kts | 78° |
| 2026-05-03 21:48 | 41.44019 | -72.59175 | 17010 ft | 381 kts | 78° |
| 2026-05-03 21:48 | 41.44384 | -72.55673 | 16997 ft | 381 kts | 78° |
| 2026-05-03 21:48 | 41.44748 | -72.52174 | 16999 ft | 381 kts | 78° |
| 2026-05-03 21:49 | 41.45105 | -72.48715 | 16996 ft | 381 kts | 78° |
| 2026-05-03 21:49 | 41.45470 | -72.45170 | 16999 ft | 381 kts | 78° |
| 2026-05-03 21:49 | 41.45825 | -72.41721 | 16999 ft | 381 kts | 78° |
| 2026-05-03 21:49 | 41.46187 | -72.38216 | 16996 ft | 381 kts | 78° |
| 2026-05-03 21:50 | 41.46544 | -72.34709 | 16994 ft | 381 kts | 78° |
| 2026-05-03 21:50 | 41.46899 | -72.31205 | 16995 ft | 381 kts | 78° |
| 2026-05-03 21:50 | 41.47252 | -72.27706 | 16992 ft | 381 kts | 78° |
| 2026-05-03 21:50 | 41.47606 | -72.24200 | 17002 ft | 382 kts | 78° |
| 2026-05-03 21:51 | 41.48179 | -72.20775 | 16988 ft | 377 kts | 67° |
| 2026-05-03 21:51 | 41.49169 | -72.17565 | 16985 ft | 372 kts | 58° |
| 2026-05-03 21:51 | 41.50313 | -72.14474 | 16988 ft | 372 kts | 58° |
| 2026-05-03 21:51 | 41.51453 | -72.11378 | 16983 ft | 372 kts | 58° |
| 2026-05-03 21:52 | 41.52587 | -72.08276 | 16984 ft | 372 kts | 58° |
| 2026-05-03 21:52 | 41.53718 | -72.05169 | 16984 ft | 372 kts | 58° |
| 2026-05-03 21:52 | 41.54848 | -72.02064 | 16983 ft | 372 kts | 59° |
| 2026-05-03 21:52 | 41.55966 | -71.98942 | 16982 ft | 373 kts | 60° |
| 2026-05-03 21:53 | 41.56987 | -71.95803 | 16977 ft | 374 kts | 62° |
| 2026-05-03 21:53 | 41.57955 | -71.92573 | 16990 ft | 375 kts | 64° |
| 2026-05-03 21:53 | 41.58891 | -71.89324 | 16979 ft | 374 kts | 64° |
| 2026-05-03 21:53 | 41.59817 | -71.86083 | 16976 ft | 374 kts | 64° |
| 2026-05-03 21:54 | 41.60749 | -71.82845 | 16970 ft | 374 kts | 64° |
| 2026-05-03 21:54 | 41.61691 | -71.79603 | 16960 ft | 373 kts | 63° |
| 2026-05-03 21:54 | 41.62636 | -71.76379 | 16964 ft | 373 kts | 63° |
| 2026-05-03 21:54 | 41.63588 | -71.73154 | 16958 ft | 373 kts | 63° |
| 2026-05-03 21:55 | 41.64541 | -71.69921 | 16945 ft | 373 kts | 63° |
| 2026-05-03 21:55 | 41.65493 | -71.66699 | 16953 ft | 373 kts | 63° |
| 2026-05-03 21:55 | 41.66441 | -71.63472 | 16952 ft | 373 kts | 63° |
| 2026-05-03 21:55 | 41.67387 | -71.60241 | 16941 ft | 373 kts | 63° |
| 2026-05-03 21:56 | 41.68330 | -71.57018 | 16949 ft | 373 kts | 63° |
| 2026-05-03 21:56 | 41.69276 | -71.53784 | 16952 ft | 373 kts | 63° |
| 2026-05-03 21:56 | 41.70220 | -71.50546 | 16940 ft | 373 kts | 63° |
| 2026-05-03 21:56 | 41.71152 | -71.47351 | 16954 ft | 373 kts | 63° |
| 2026-05-03 21:57 | 41.72097 | -71.44125 | 16977 ft | 372 kts | 63° |
| 2026-05-03 21:57 | 41.73272 | -71.41071 | 16965 ft | 367 kts | 54° |
| 2026-05-03 21:57 | 41.74550 | -71.38105 | 16972 ft | 367 kts | 54° |
| 2026-05-03 21:57 | 41.75822 | -71.35139 | 16963 ft | 367 kts | 54° |
| 2026-05-03 21:58 | 41.77090 | -71.32171 | 16966 ft | 367 kts | 54° |
| 2026-05-03 21:58 | 41.78357 | -71.29205 | 16963 ft | 367 kts | 54° |
| 2026-05-03 21:58 | 41.79625 | -71.26233 | 16962 ft | 367 kts | 54° |
| 2026-05-03 21:58 | 41.80893 | -71.23254 | 16945 ft | 367 kts | 54° |
| 2026-05-03 21:59 | 41.82158 | -71.20275 | 16943 ft | 368 kts | 54° |
| 2026-05-03 21:59 | 41.83419 | -71.17302 | 16944 ft | 368 kts | 54° |
| 2026-05-03 21:59 | 41.84686 | -71.14318 | 16944 ft | 368 kts | 54° |
| 2026-05-03 21:59 | 41.85949 | -71.11337 | 16955 ft | 367 kts | 54° |
| 2026-05-03 22:00 | 41.87217 | -71.08366 | 16949 ft | 367 kts | 54° |
| 2026-05-03 22:00 | 41.88492 | -71.05409 | 16951 ft | 366 kts | 54° |
| 2026-05-03 22:00 | 41.89777 | -71.02452 | 16952 ft | 366 kts | 54° |
| 2026-05-03 22:00 | 41.91059 | -70.99506 | 16952 ft | 366 kts | 54° |
| 2026-05-03 22:01 | 41.92345 | -70.96553 | 16954 ft | 366 kts | 54° |
| 2026-05-03 22:01 | 41.93609 | -70.93635 | 16952 ft | 366 kts | 54° |
| 2026-05-03 22:01 | 41.94884 | -70.90676 | 16951 ft | 366 kts | 54° |
| 2026-05-03 22:01 | 41.96156 | -70.87710 | 16942 ft | 366 kts | 54° |
| 2026-05-03 22:02 | 41.97427 | -70.84743 | 16924 ft | 366 kts | 54° |
| 2026-05-03 22:02 | 41.98696 | -70.81775 | 16924 ft | 367 kts | 54° |
| 2026-05-03 22:02 | 41.99966 | -70.78806 | 16933 ft | 367 kts | 54° |
| 2026-05-03 22:02 | 42.01323 | -70.75931 | 16923 ft | 360 kts | 46° |
| 2026-05-03 22:03 | 42.02934 | -70.73470 | 16922 ft | 341 kts | 41° |
| 2026-05-03 22:03 | 42.04484 | -70.71145 | 16923 ft | 328 kts | 41° |
| 2026-05-03 22:03 | 42.05992 | -70.68879 | 16924 ft | 324 kts | 41° |
| 2026-05-03 22:03 | 42.07496 | -70.66631 | 16924 ft | 323 kts | 41° |
| 2026-05-03 22:04 | 42.08999 | -70.64388 | 16924 ft | 322 kts | 41° |
| 2026-05-03 22:04 | 42.10661 | -70.62450 | 16925 ft | 312 kts | 25° |
| 2026-05-03 22:04 | 42.12608 | -70.61296 | 16924 ft | 302 kts | 8° |
| 2026-05-03 22:04 | 42.14655 | -70.60805 | 16924 ft | 298 kts | 3° |
| 2026-05-03 22:05 | 42.16702 | -70.60374 | 16933 ft | 299 kts | 3° |
| 2026-05-03 22:05 | 42.18756 | -70.59935 | 16919 ft | 299 kts | 3° |
| 2026-05-03 22:05 | 42.20806 | -70.59494 | 16919 ft | 299 kts | 3° |
| 2026-05-03 22:05 | 42.22835 | -70.59058 | 16919 ft | 299 kts | 3° |
| 2026-05-03 22:06 | 42.24883 | -70.58619 | 16917 ft | 298 kts | 3° |
| 2026-05-03 22:06 | 42.26934 | -70.58184 | 16917 ft | 299 kts | 3° |
| 2026-05-03 22:06 | 42.28988 | -70.57760 | 16917 ft | 298 kts | 3° |
| 2026-05-03 22:06 | 42.31040 | -70.57328 | 16917 ft | 299 kts | 3° |
| 2026-05-03 22:07 | 42.33095 | -70.56878 | 16917 ft | 299 kts | 4° |
| 2026-05-03 22:07 | 42.35144 | -70.56414 | 16917 ft | 299 kts | 4° |
| 2026-05-03 22:07 | 42.37192 | -70.55939 | 16919 ft | 299 kts | 4° |
| 2026-05-03 22:07 | 42.39245 | -70.55453 | 16911 ft | 299 kts | 4° |
| 2026-05-03 22:08 | 42.41294 | -70.54967 | 16911 ft | 299 kts | 4° |
| 2026-05-03 22:08 | 42.43343 | -70.54482 | 16912 ft | 299 kts | 4° |
| 2026-05-03 22:08 | 42.45397 | -70.53997 | 16918 ft | 299 kts | 4° |
| 2026-05-03 22:08 | 42.47449 | -70.53512 | 16913 ft | 300 kts | 4° |
| 2026-05-03 22:09 | 42.49504 | -70.53024 | 16913 ft | 300 kts | 4° |
| 2026-05-03 22:09 | 42.51562 | -70.52535 | 16913 ft | 300 kts | 4° |
| 2026-05-03 22:09 | 42.53624 | -70.52047 | 16913 ft | 300 kts | 4° |
| 2026-05-03 22:10 | 42.57716 | -70.51077 | 16907 ft | 300 kts | 5° |
| 2026-05-03 22:10 | 42.59801 | -70.50581 | 16908 ft | 300 kts | 5° |
| 2026-05-03 22:10 | 42.61832 | -70.50098 | 16906 ft | 300 kts | 4° |
| 2026-05-03 22:10 | 42.63890 | -70.49610 | 16905 ft | 300 kts | 5° |
| 2026-05-03 22:11 | 42.65946 | -70.49119 | 16908 ft | 300 kts | 5° |
| 2026-05-03 22:11 | 42.68005 | -70.48629 | 16906 ft | 300 kts | 5° |
| 2026-05-03 22:11 | 42.70066 | -70.48139 | 16903 ft | 300 kts | 4° |
| 2026-05-03 22:11 | 42.72127 | -70.47650 | 16902 ft | 301 kts | 4° |
| 2026-05-03 22:12 | 42.74189 | -70.47162 | 16898 ft | 301 kts | 5° |
| 2026-05-03 22:12 | 42.76247 | -70.46673 | 16896 ft | 301 kts | 5° |
| 2026-05-03 22:12 | 42.77616 | -70.46347 | 16896 ft | 301 kts | 5° |
| 2026-05-03 22:12 | 42.79736 | -70.45845 | 16899 ft | 323 kts | 5° |
| 2026-05-03 22:13 | 42.81993 | -70.45319 | 16896 ft | 333 kts | 5° |
| 2026-05-03 22:13 | 42.84289 | -70.44775 | 16893 ft | 336 kts | 5° |
| 2026-05-03 22:13 | 42.86588 | -70.44219 | 16893 ft | 336 kts | 5° |
| 2026-05-03 22:13 | 42.88891 | -70.43659 | 16893 ft | 336 kts | 5° |
| 2026-05-03 22:14 | 42.91200 | -70.43101 | 16893 ft | 337 kts | 5° |
| 2026-05-03 22:14 | 42.93508 | -70.42545 | 16894 ft | 337 kts | 5° |
| 2026-05-03 22:14 | 42.95819 | -70.41990 | 16893 ft | 338 kts | 5° |
| 2026-05-03 22:14 | 42.98137 | -70.41432 | 16894 ft | 338 kts | 5° |
| 2026-05-03 22:15 | 43.00449 | -70.40873 | 16895 ft | 338 kts | 5° |
| 2026-05-03 22:15 | 43.02763 | -70.40314 | 16896 ft | 338 kts | 5° |
| 2026-05-03 22:15 | 43.05075 | -70.39754 | 16896 ft | 338 kts | 5° |
| 2026-05-03 22:15 | 43.07389 | -70.39194 | 16896 ft | 338 kts | 5° |
| 2026-05-03 22:16 | 43.09703 | -70.38635 | 16897 ft | 338 kts | 5° |
| 2026-05-03 22:16 | 43.11988 | -70.38086 | 16896 ft | 338 kts | 5° |
| 2026-05-03 22:16 | 43.14302 | -70.37533 | 16898 ft | 338 kts | 5° |
| 2026-05-03 22:16 | 43.16618 | -70.36975 | 16898 ft | 338 kts | 5° |
| 2026-05-03 22:17 | 43.18928 | -70.36417 | 16898 ft | 338 kts | 5° |
| 2026-05-03 22:17 | 43.21243 | -70.35857 | 16898 ft | 338 kts | 5° |
| 2026-05-03 22:17 | 43.23557 | -70.35299 | 16898 ft | 338 kts | 5° |
| 2026-05-03 22:17 | 43.25866 | -70.34743 | 16898 ft | 338 kts | 5° |
| 2026-05-03 22:18 | 43.28183 | -70.34183 | 16904 ft | 338 kts | 5° |
| 2026-05-03 22:18 | 43.30501 | -70.33619 | 16898 ft | 338 kts | 6° |
| 2026-05-03 22:18 | 43.32817 | -70.33051 | 16898 ft | 338 kts | 6° |
| 2026-05-03 22:18 | 43.35135 | -70.32483 | 16898 ft | 338 kts | 6° |
| 2026-05-03 22:19 | 43.37450 | -70.31917 | 16897 ft | 338 kts | 6° |
| 2026-05-03 22:19 | 43.39766 | -70.31351 | 16896 ft | 338 kts | 6° |
| 2026-05-03 22:19 | 43.42085 | -70.30785 | 16896 ft | 338 kts | 5° |
| 2026-05-03 22:19 | 43.44402 | -70.30221 | 16888 ft | 338 kts | 5° |
| 2026-05-03 22:20 | 43.46688 | -70.29666 | 16907 ft | 338 kts | 6° |
| 2026-05-03 22:20 | 43.49009 | -70.29102 | 16891 ft | 339 kts | 6° |
| 2026-05-03 22:20 | 43.51337 | -70.28535 | 16881 ft | 340 kts | 6° |
| 2026-05-03 22:20 | 43.53664 | -70.27963 | 16884 ft | 340 kts | 6° |
| 2026-05-03 22:21 | 43.55997 | -70.27388 | 16881 ft | 340 kts | 6° |
| 2026-05-03 22:21 | 43.58328 | -70.26816 | 16877 ft | 340 kts | 6° |
| 2026-05-03 22:21 | 43.60656 | -70.26246 | 16868 ft | 340 kts | 6° |
| 2026-05-03 22:21 | 43.62985 | -70.25675 | 16868 ft | 340 kts | 6° |
| 2026-05-03 22:22 | 43.65314 | -70.25104 | 16880 ft | 340 kts | 6° |
| 2026-05-03 22:22 | 43.67646 | -70.24529 | 16870 ft | 341 kts | 6° |
| 2026-05-03 22:22 | 43.69983 | -70.23949 | 16868 ft | 342 kts | 6° |
| 2026-05-03 22:22 | 43.72327 | -70.23369 | 16869 ft | 342 kts | 6° |
| 2026-05-03 22:23 | 43.74663 | -70.22794 | 16870 ft | 342 kts | 6° |
| 2026-05-03 22:23 | 43.77004 | -70.22217 | 16864 ft | 341 kts | 6° |
| 2026-05-03 22:23 | 43.79337 | -70.21641 | 16873 ft | 340 kts | 6° |
| 2026-05-03 22:23 | 43.81667 | -70.21069 | 16874 ft | 340 kts | 6° |
| 2026-05-03 22:24 | 43.83996 | -70.20497 | 16881 ft | 340 kts | 6° |